sensor_id;sensor_type;location;lat;lon;timestamp;P1;durP1;ratioP1;P2;durP2;ratioP2
16705;SDS011;8469;60.136;15.180;2023-07-31T00:02:18;10.78;;;3.77;;
16705;SDS011;8469;60.136;15.180;2023-07-31T00:04:45;9.03;;;3.70;;
16705;SDS011;8469;60.136;15.180;2023-07-31T00:07:12;8.28;;;3.60;;
16705;SDS011;8469;60.136;15.180;2023-07-31T00:09:40;7.85;;;3.10;;
16705;SDS011;8469;60.136;15.180;2023-07-31T00:12:07;6.40;;;3.52;;
16705;SDS011;8469;60.136;15.180;2023-07-31T00:14:34;5.62;;;3.02;;
16705;SDS011;8469;60.136;15.180;2023-07-31T00:17:04;7.12;;;3.40;;
16705;SDS011;8469;60.136;15.180;2023-07-31T00:19:31;5.15;;;3.42;;
16705;SDS011;8469;60.136;15.180;2023-07-31T00:21:58;5.10;;;3.30;;
16705;SDS011;8469;60.136;15.180;2023-07-31T00:24:25;5.55;;;2.42;;
16705;SDS011;8469;60.136;15.180;2023-07-31T00:26:53;10.38;;;2.77;;
16705;SDS011;8469;60.136;15.180;2023-07-31T00:29:20;5.05;;;2.45;;
16705;SDS011;8469;60.136;15.180;2023-07-31T00:31:48;6.33;;;2.72;;
16705;SDS011;8469;60.136;15.180;2023-07-31T00:34:15;7.53;;;2.57;;
16705;SDS011;8469;60.136;15.180;2023-07-31T00:36:43;7.37;;;2.77;;
16705;SDS011;8469;60.136;15.180;2023-07-31T00:39:10;6.97;;;2.77;;
16705;SDS011;8469;60.136;15.180;2023-07-31T00:41:37;5.83;;;2.70;;
16705;SDS011;8469;60.136;15.180;2023-07-31T00:44:05;7.08;;;2.87;;
16705;SDS011;8469;60.136;15.180;2023-07-31T00:46:32;7.37;;;2.75;;
16705;SDS011;8469;60.136;15.180;2023-07-31T00:49:00;10.50;;;3.00;;
16705;SDS011;8469;60.136;15.180;2023-07-31T00:51:28;5.93;;;2.60;;
16705;SDS011;8469;60.136;15.180;2023-07-31T00:53:56;8.18;;;2.60;;
16705;SDS011;8469;60.136;15.180;2023-07-31T00:56:23;5.00;;;2.22;;
16705;SDS011;8469;60.136;15.180;2023-07-31T00:58:51;8.63;;;2.50;;
16705;SDS011;8469;60.136;15.180;2023-07-31T01:01:18;5.05;;;1.90;;
16705;SDS011;8469;60.136;15.180;2023-07-31T01:03:45;6.93;;;2.60;;
16705;SDS011;8469;60.136;15.180;2023-07-31T01:06:17;3.80;;;2.08;;
16705;SDS011;8469;60.136;15.180;2023-07-31T01:11:53;4.25;;;2.42;;
16705;SDS011;8469;60.136;15.180;2023-07-31T01:14:20;10.40;;;3.50;;
16705;SDS011;8469;60.136;15.180;2023-07-31T01:17:06;6.30;;;2.92;;
16705;SDS011;8469;60.136;15.180;2023-07-31T01:19:34;4.83;;;2.30;;
16705;SDS011;8469;60.136;15.180;2023-07-31T01:24:35;4.17;;;2.35;;
16705;SDS011;8469;60.136;15.180;2023-07-31T01:27:10;7.85;;;2.55;;
16705;SDS011;8469;60.136;15.180;2023-07-31T01:32:19;6.42;;;2.35;;
16705;SDS011;8469;60.136;15.180;2023-07-31T01:34:46;7.22;;;3.20;;
16705;SDS011;8469;60.136;15.180;2023-07-31T01:37:13;7.43;;;2.77;;
16705;SDS011;8469;60.136;15.180;2023-07-31T01:39:41;5.58;;;2.77;;
16705;SDS011;8469;60.136;15.180;2023-07-31T01:42:08;11.18;;;2.80;;
16705;SDS011;8469;60.136;15.180;2023-07-31T01:44:35;6.67;;;2.47;;
16705;SDS011;8469;60.136;15.180;2023-07-31T01:47:03;8.48;;;2.22;;
16705;SDS011;8469;60.136;15.180;2023-07-31T01:49:30;7.70;;;2.33;;
16705;SDS011;8469;60.136;15.180;2023-07-31T01:51:57;7.60;;;2.10;;
16705;SDS011;8469;60.136;15.180;2023-07-31T01:54:24;9.40;;;2.20;;
16705;SDS011;8469;60.136;15.180;2023-07-31T01:56:52;9.75;;;2.47;;
16705;SDS011;8469;60.136;15.180;2023-07-31T01:59:19;6.15;;;2.37;;
16705;SDS011;8469;60.136;15.180;2023-07-31T02:01:46;7.13;;;2.63;;
16705;SDS011;8469;60.136;15.180;2023-07-31T02:04:14;5.35;;;2.47;;
16705;SDS011;8469;60.136;15.180;2023-07-31T02:06:41;6.22;;;2.52;;
16705;SDS011;8469;60.136;15.180;2023-07-31T02:09:08;6.12;;;2.10;;
16705;SDS011;8469;60.136;15.180;2023-07-31T02:11:36;5.17;;;2.10;;
16705;SDS011;8469;60.136;15.180;2023-07-31T02:14:03;3.83;;;2.20;;
16705;SDS011;8469;60.136;15.180;2023-07-31T02:16:30;3.20;;;2.10;;
16705;SDS011;8469;60.136;15.180;2023-07-31T02:19:00;4.58;;;1.80;;
16705;SDS011;8469;60.136;15.180;2023-07-31T02:21:26;3.35;;;2.10;;
16705;SDS011;8469;60.136;15.180;2023-07-31T02:23:54;3.85;;;1.92;;
16705;SDS011;8469;60.136;15.180;2023-07-31T02:26:21;6.35;;;1.80;;
16705;SDS011;8469;60.136;15.180;2023-07-31T02:28:48;3.65;;;1.90;;
16705;SDS011;8469;60.136;15.180;2023-07-31T02:31:15;4.10;;;1.80;;
16705;SDS011;8469;60.136;15.180;2023-07-31T02:33:43;3.77;;;2.00;;
16705;SDS011;8469;60.136;15.180;2023-07-31T02:36:10;6.65;;;2.00;;
16705;SDS011;8469;60.136;15.180;2023-07-31T02:38:37;3.50;;;1.80;;
16705;SDS011;8469;60.136;15.180;2023-07-31T02:41:05;3.33;;;1.95;;
16705;SDS011;8469;60.136;15.180;2023-07-31T02:43:32;4.75;;;2.10;;
16705;SDS011;8469;60.136;15.180;2023-07-31T02:45:59;5.10;;;2.00;;
16705;SDS011;8469;60.136;15.180;2023-07-31T02:48:27;4.30;;;1.90;;
16705;SDS011;8469;60.136;15.180;2023-07-31T02:50:54;3.27;;;1.77;;
16705;SDS011;8469;60.136;15.180;2023-07-31T02:53:21;9.48;;;1.95;;
16705;SDS011;8469;60.136;15.180;2023-07-31T02:55:49;6.15;;;1.77;;
16705;SDS011;8469;60.136;15.180;2023-07-31T02:58:16;3.50;;;1.67;;
16705;SDS011;8469;60.136;15.180;2023-07-31T03:00:44;3.95;;;2.00;;
16705;SDS011;8469;60.136;15.180;2023-07-31T03:03:11;3.42;;;1.80;;
16705;SDS011;8469;60.136;15.180;2023-07-31T03:05:38;2.45;;;1.77;;
16705;SDS011;8469;60.136;15.180;2023-07-31T03:08:06;3.33;;;1.87;;
16705;SDS011;8469;60.136;15.180;2023-07-31T03:10:34;3.30;;;1.50;;
16705;SDS011;8469;60.136;15.180;2023-07-31T03:13:01;5.00;;;1.67;;
16705;SDS011;8469;60.136;15.180;2023-07-31T03:15:29;5.70;;;2.10;;
16705;SDS011;8469;60.136;15.180;2023-07-31T03:17:56;5.95;;;2.10;;
16705;SDS011;8469;60.136;15.180;2023-07-31T03:20:23;9.40;;;2.47;;
16705;SDS011;8469;60.136;15.180;2023-07-31T03:22:51;8.63;;;2.10;;
16705;SDS011;8469;60.136;15.180;2023-07-31T03:25:18;6.50;;;1.80;;
16705;SDS011;8469;60.136;15.180;2023-07-31T03:27:45;5.92;;;2.20;;
16705;SDS011;8469;60.136;15.180;2023-07-31T03:30:12;3.13;;;2.20;;
16705;SDS011;8469;60.136;15.180;2023-07-31T03:32:40;4.20;;;1.98;;
16705;SDS011;8469;60.136;15.180;2023-07-31T03:35:07;4.50;;;1.95;;
16705;SDS011;8469;60.136;15.180;2023-07-31T03:37:35;5.42;;;2.33;;
16705;SDS011;8469;60.136;15.180;2023-07-31T03:40:02;8.68;;;2.67;;
16705;SDS011;8469;60.136;15.180;2023-07-31T03:42:30;5.50;;;2.52;;
16705;SDS011;8469;60.136;15.180;2023-07-31T03:44:58;11.63;;;2.30;;
16705;SDS011;8469;60.136;15.180;2023-07-31T03:47:25;5.00;;;2.50;;
16705;SDS011;8469;60.136;15.180;2023-07-31T03:49:53;33.73;;;3.07;;
16705;SDS011;8469;60.136;15.180;2023-07-31T03:52:20;23.75;;;3.40;;
16705;SDS011;8469;60.136;15.180;2023-07-31T03:54:48;81.95;;;4.22;;
16705;SDS011;8469;60.136;15.180;2023-07-31T03:57:15;122.47;;;5.63;;
16705;SDS011;8469;60.136;15.180;2023-07-31T03:59:42;128.10;;;5.25;;
16705;SDS011;8469;60.136;15.180;2023-07-31T04:02:10;54.95;;;3.85;;
16705;SDS011;8469;60.136;15.180;2023-07-31T04:04:37;216.77;;;7.47;;
16705;SDS011;8469;60.136;15.180;2023-07-31T04:07:04;472.13;;;12.88;;
16705;SDS011;8469;60.136;15.180;2023-07-31T04:09:32;406.95;;;12.05;;
16705;SDS011;8469;60.136;15.180;2023-07-31T04:11:59;414.05;;;12.28;;
16705;SDS011;8469;60.136;15.180;2023-07-31T04:14:26;363.73;;;9.40;;
16705;SDS011;8469;60.136;15.180;2023-07-31T04:16:54;321.55;;;6.75;;
16705;SDS011;8469;60.136;15.180;2023-07-31T04:19:21;270.05;;;6.70;;
16705;SDS011;8469;60.136;15.180;2023-07-31T04:21:48;276.07;;;8.80;;
16705;SDS011;8469;60.136;15.180;2023-07-31T04:24:16;194.30;;;6.57;;
16705;SDS011;8469;60.136;15.180;2023-07-31T04:26:45;579.43;;;14.10;;
16705;SDS011;8469;60.136;15.180;2023-07-31T04:29:12;351.07;;;9.23;;
16705;SDS011;8469;60.136;15.180;2023-07-31T04:31:39;263.62;;;6.35;;
16705;SDS011;8469;60.136;15.180;2023-07-31T04:34:06;362.25;;;8.93;;
16705;SDS011;8469;60.136;15.180;2023-07-31T04:36:34;387.97;;;9.83;;
16705;SDS011;8469;60.136;15.180;2023-07-31T04:39:02;91.93;;;3.80;;
16705;SDS011;8469;60.136;15.180;2023-07-31T04:41:29;74.03;;;3.80;;
16705;SDS011;8469;60.136;15.180;2023-07-31T04:43:57;26.43;;;2.73;;
16705;SDS011;8469;60.136;15.180;2023-07-31T04:46:24;22.20;;;2.52;;
16705;SDS011;8469;60.136;15.180;2023-07-31T04:48:51;130.50;;;4.37;;
16705;SDS011;8469;60.136;15.180;2023-07-31T04:51:19;317.27;;;8.03;;
16705;SDS011;8469;60.136;15.180;2023-07-31T04:53:47;328.90;;;8.08;;
16705;SDS011;8469;60.136;15.180;2023-07-31T04:56:14;223.18;;;5.62;;
16705;SDS011;8469;60.136;15.180;2023-07-31T04:58:42;40.40;;;3.55;;
16705;SDS011;8469;60.136;15.180;2023-07-31T05:01:09;44.25;;;2.50;;
16705;SDS011;8469;60.136;15.180;2023-07-31T05:03:36;27.27;;;2.35;;
16705;SDS011;8469;60.136;15.180;2023-07-31T05:06:05;16.52;;;2.10;;
16705;SDS011;8469;60.136;15.180;2023-07-31T05:08:33;9.98;;;2.80;;
16705;SDS011;8469;60.136;15.180;2023-07-31T05:11:05;63.02;;;3.52;;
16705;SDS011;8469;60.136;15.180;2023-07-31T05:13:29;16.95;;;2.95;;
16705;SDS011;8469;60.136;15.180;2023-07-31T05:15:56;11.10;;;2.30;;
16705;SDS011;8469;60.136;15.180;2023-07-31T05:18:24;6.03;;;2.30;;
16705;SDS011;8469;60.136;15.180;2023-07-31T05:20:51;17.83;;;2.27;;
16705;SDS011;8469;60.136;15.180;2023-07-31T05:23:18;1.85;;;1.75;;
16705;SDS011;8469;60.136;15.180;2023-07-31T05:25:45;3.12;;;1.90;;
16705;SDS011;8469;60.136;15.180;2023-07-31T05:28:13;5.33;;;1.80;;
16705;SDS011;8469;60.136;15.180;2023-07-31T05:30:40;5.25;;;1.70;;
16705;SDS011;8469;60.136;15.180;2023-07-31T05:33:08;2.77;;;1.75;;
16705;SDS011;8469;60.136;15.180;2023-07-31T05:35:36;2.60;;;1.98;;
16705;SDS011;8469;60.136;15.180;2023-07-31T05:38:03;2.30;;;1.80;;
16705;SDS011;8469;60.136;15.180;2023-07-31T05:40:32;2.00;;;1.80;;
16705;SDS011;8469;60.136;15.180;2023-07-31T05:42:59;3.15;;;1.62;;
16705;SDS011;8469;60.136;15.180;2023-07-31T05:45:26;2.13;;;1.60;;
16705;SDS011;8469;60.136;15.180;2023-07-31T05:47:54;2.90;;;1.57;;
16705;SDS011;8469;60.136;15.180;2023-07-31T05:50:21;2.77;;;1.70;;
16705;SDS011;8469;60.136;15.180;2023-07-31T05:52:49;4.23;;;1.57;;
16705;SDS011;8469;60.136;15.180;2023-07-31T05:55:17;3.42;;;1.62;;
16705;SDS011;8469;60.136;15.180;2023-07-31T05:57:45;2.90;;;1.40;;
16705;SDS011;8469;60.136;15.180;2023-07-31T06:00:12;3.37;;;1.50;;
16705;SDS011;8469;60.136;15.180;2023-07-31T06:02:40;2.90;;;1.50;;
16705;SDS011;8469;60.136;15.180;2023-07-31T06:05:07;1.87;;;1.42;;
16705;SDS011;8469;60.136;15.180;2023-07-31T06:07:36;5.30;;;1.60;;
16705;SDS011;8469;60.136;15.180;2023-07-31T06:10:03;3.30;;;1.60;;
16705;SDS011;8469;60.136;15.180;2023-07-31T06:12:31;2.05;;;1.50;;
16705;SDS011;8469;60.136;15.180;2023-07-31T06:15:02;1.90;;;1.30;;
16705;SDS011;8469;60.136;15.180;2023-07-31T06:17:30;1.98;;;1.40;;
16705;SDS011;8469;60.136;15.180;2023-07-31T06:19:57;5.42;;;1.32;;
16705;SDS011;8469;60.136;15.180;2023-07-31T06:22:25;2.45;;;1.30;;
16705;SDS011;8469;60.136;15.180;2023-07-31T06:24:52;2.60;;;1.60;;
16705;SDS011;8469;60.136;15.180;2023-07-31T06:27:19;2.45;;;1.60;;
16705;SDS011;8469;60.136;15.180;2023-07-31T06:29:47;4.58;;;1.72;;
16705;SDS011;8469;60.136;15.180;2023-07-31T06:32:14;3.35;;;1.50;;
16705;SDS011;8469;60.136;15.180;2023-07-31T06:34:41;3.05;;;1.35;;
16705;SDS011;8469;60.136;15.180;2023-07-31T06:37:09;2.62;;;1.37;;
16705;SDS011;8469;60.136;15.180;2023-07-31T06:39:37;4.05;;;1.67;;
16705;SDS011;8469;60.136;15.180;2023-07-31T06:42:04;5.95;;;2.15;;
16705;SDS011;8469;60.136;15.180;2023-07-31T06:44:32;4.08;;;1.50;;
16705;SDS011;8469;60.136;15.180;2023-07-31T06:46:59;3.27;;;1.60;;
16705;SDS011;8469;60.136;15.180;2023-07-31T06:49:26;4.63;;;1.57;;
16705;SDS011;8469;60.136;15.180;2023-07-31T06:51:53;5.58;;;1.60;;
16705;SDS011;8469;60.136;15.180;2023-07-31T06:54:21;6.50;;;1.55;;
16705;SDS011;8469;60.136;15.180;2023-07-31T06:56:49;7.20;;;1.42;;
16705;SDS011;8469;60.136;15.180;2023-07-31T06:59:16;4.72;;;1.50;;
16705;SDS011;8469;60.136;15.180;2023-07-31T07:01:44;5.92;;;1.47;;
16705;SDS011;8469;60.136;15.180;2023-07-31T07:04:11;4.65;;;1.57;;
16705;SDS011;8469;60.136;15.180;2023-07-31T07:06:38;4.92;;;1.50;;
16705;SDS011;8469;60.136;15.180;2023-07-31T07:09:06;4.80;;;1.65;;
16705;SDS011;8469;60.136;15.180;2023-07-31T07:11:33;5.20;;;1.60;;
16705;SDS011;8469;60.136;15.180;2023-07-31T07:14:03;3.67;;;1.65;;
16705;SDS011;8469;60.136;15.180;2023-07-31T07:16:32;2.77;;;1.37;;
16705;SDS011;8469;60.136;15.180;2023-07-31T07:18:59;2.65;;;1.30;;
16705;SDS011;8469;60.136;15.180;2023-07-31T07:21:27;8.30;;;1.70;;
16705;SDS011;8469;60.136;15.180;2023-07-31T07:23:55;5.75;;;1.67;;
16705;SDS011;8469;60.136;15.180;2023-07-31T07:26:22;6.47;;;1.50;;
16705;SDS011;8469;60.136;15.180;2023-07-31T07:28:50;3.25;;;1.90;;
16705;SDS011;8469;60.136;15.180;2023-07-31T07:31:17;10.35;;;1.70;;
16705;SDS011;8469;60.136;15.180;2023-07-31T07:33:45;5.20;;;1.47;;
16705;SDS011;8469;60.136;15.180;2023-07-31T07:36:12;4.75;;;1.50;;
16705;SDS011;8469;60.136;15.180;2023-07-31T07:38:40;4.00;;;1.50;;
16705;SDS011;8469;60.136;15.180;2023-07-31T07:41:07;4.83;;;1.55;;
16705;SDS011;8469;60.136;15.180;2023-07-31T07:43:35;5.23;;;1.63;;
16705;SDS011;8469;60.136;15.180;2023-07-31T07:46:01;6.15;;;1.55;;
16705;SDS011;8469;60.136;15.180;2023-07-31T07:48:29;4.97;;;1.67;;
16705;SDS011;8469;60.136;15.180;2023-07-31T07:50:57;4.87;;;1.67;;
16705;SDS011;8469;60.136;15.180;2023-07-31T07:53:24;5.22;;;1.62;;
16705;SDS011;8469;60.136;15.180;2023-07-31T07:55:51;5.30;;;1.70;;
16705;SDS011;8469;60.136;15.180;2023-07-31T07:58:19;4.00;;;1.52;;
16705;SDS011;8469;60.136;15.180;2023-07-31T08:00:52;5.00;;;1.42;;
16705;SDS011;8469;60.136;15.180;2023-07-31T08:03:20;6.85;;;1.50;;
16705;SDS011;8469;60.136;15.180;2023-07-31T08:05:47;6.47;;;1.67;;
16705;SDS011;8469;60.136;15.180;2023-07-31T08:08:15;6.47;;;1.87;;
16705;SDS011;8469;60.136;15.180;2023-07-31T08:10:43;3.22;;;1.40;;
16705;SDS011;8469;60.136;15.180;2023-07-31T08:13:11;3.65;;;1.50;;
16705;SDS011;8469;60.136;15.180;2023-07-31T08:15:40;7.72;;;1.62;;
16705;SDS011;8469;60.136;15.180;2023-07-31T08:18:07;4.92;;;1.60;;
16705;SDS011;8469;60.136;15.180;2023-07-31T08:20:34;3.35;;;1.60;;
16705;SDS011;8469;60.136;15.180;2023-07-31T08:23:04;4.00;;;1.80;;
16705;SDS011;8469;60.136;15.180;2023-07-31T08:25:30;3.85;;;1.40;;
16705;SDS011;8469;60.136;15.180;2023-07-31T08:27:59;4.53;;;1.55;;
16705;SDS011;8469;60.136;15.180;2023-07-31T08:30:27;6.55;;;1.40;;
16705;SDS011;8469;60.136;15.180;2023-07-31T08:32:54;5.72;;;1.52;;
16705;SDS011;8469;60.136;15.180;2023-07-31T08:35:22;4.67;;;1.42;;
16705;SDS011;8469;60.136;15.180;2023-07-31T08:37:49;4.50;;;1.50;;
16705;SDS011;8469;60.136;15.180;2023-07-31T08:40:16;6.90;;;1.40;;
16705;SDS011;8469;60.136;15.180;2023-07-31T08:42:44;5.10;;;1.70;;
16705;SDS011;8469;60.136;15.180;2023-07-31T08:45:15;4.03;;;1.50;;
16705;SDS011;8469;60.136;15.180;2023-07-31T08:47:48;3.92;;;1.32;;
16705;SDS011;8469;60.136;15.180;2023-07-31T08:50:16;4.65;;;1.50;;
16705;SDS011;8469;60.136;15.180;2023-07-31T08:52:43;4.67;;;1.30;;
16705;SDS011;8469;60.136;15.180;2023-07-31T08:55:11;3.08;;;1.45;;
16705;SDS011;8469;60.136;15.180;2023-07-31T08:57:38;6.78;;;1.67;;
16705;SDS011;8469;60.136;15.180;2023-07-31T09:00:06;5.50;;;1.60;;
16705;SDS011;8469;60.136;15.180;2023-07-31T09:02:41;3.95;;;1.45;;
16705;SDS011;8469;60.136;15.180;2023-07-31T09:05:03;3.33;;;1.40;;
16705;SDS011;8469;60.136;15.180;2023-07-31T09:07:31;5.13;;;1.80;;
16705;SDS011;8469;60.136;15.180;2023-07-31T09:10:00;4.70;;;1.33;;
16705;SDS011;8469;60.136;15.180;2023-07-31T09:12:28;6.72;;;1.57;;
16705;SDS011;8469;60.136;15.180;2023-07-31T09:14:56;6.20;;;1.50;;
16705;SDS011;8469;60.136;15.180;2023-07-31T09:17:33;3.60;;;1.52;;
16705;SDS011;8469;60.136;15.180;2023-07-31T09:20:20;4.87;;;1.67;;
16705;SDS011;8469;60.136;15.180;2023-07-31T09:22:33;4.95;;;1.40;;
16705;SDS011;8469;60.136;15.180;2023-07-31T09:25:22;4.55;;;1.50;;
16705;SDS011;8469;60.136;15.180;2023-07-31T09:27:30;4.03;;;1.40;;
16705;SDS011;8469;60.136;15.180;2023-07-31T09:30:00;4.33;;;1.45;;
16705;SDS011;8469;60.136;15.180;2023-07-31T09:32:28;4.78;;;1.62;;
16705;SDS011;8469;60.136;15.180;2023-07-31T09:34:56;3.40;;;1.45;;
16705;SDS011;8469;60.136;15.180;2023-07-31T09:37:24;4.95;;;1.60;;
16705;SDS011;8469;60.136;15.180;2023-07-31T09:39:51;2.87;;;1.45;;
16705;SDS011;8469;60.136;15.180;2023-07-31T09:42:24;3.12;;;1.50;;
16705;SDS011;8469;60.136;15.180;2023-07-31T09:44:51;3.72;;;1.32;;
16705;SDS011;8469;60.136;15.180;2023-07-31T09:47:24;6.15;;;1.50;;
16705;SDS011;8469;60.136;15.180;2023-07-31T09:49:52;4.67;;;1.40;;
16705;SDS011;8469;60.136;15.180;2023-07-31T09:52:19;4.25;;;1.50;;
16705;SDS011;8469;60.136;15.180;2023-07-31T09:54:46;6.15;;;1.55;;
16705;SDS011;8469;60.136;15.180;2023-07-31T09:57:14;5.60;;;1.62;;
16705;SDS011;8469;60.136;15.180;2023-07-31T09:59:43;5.40;;;1.20;;
16705;SDS011;8469;60.136;15.180;2023-07-31T10:02:13;3.75;;;1.65;;
16705;SDS011;8469;60.136;15.180;2023-07-31T10:04:40;6.17;;;1.70;;
16705;SDS011;8469;60.136;15.180;2023-07-31T10:07:09;6.67;;;1.40;;
16705;SDS011;8469;60.136;15.180;2023-07-31T10:09:36;4.35;;;1.60;;
16705;SDS011;8469;60.136;15.180;2023-07-31T10:12:06;3.45;;;1.60;;
16705;SDS011;8469;60.136;15.180;2023-07-31T10:14:36;3.27;;;1.50;;
16705;SDS011;8469;60.136;15.180;2023-07-31T10:17:05;4.25;;;1.30;;
16705;SDS011;8469;60.136;15.180;2023-07-31T10:19:32;5.17;;;1.40;;
16705;SDS011;8469;60.136;15.180;2023-07-31T10:22:01;3.50;;;1.60;;
16705;SDS011;8469;60.136;15.180;2023-07-31T10:24:31;6.00;;;1.60;;
16705;SDS011;8469;60.136;15.180;2023-07-31T10:27:00;3.50;;;1.35;;
16705;SDS011;8469;60.136;15.180;2023-07-31T10:29:28;2.47;;;1.20;;
16705;SDS011;8469;60.136;15.180;2023-07-31T10:31:56;3.05;;;1.37;;
16705;SDS011;8469;60.136;15.180;2023-07-31T10:34:24;3.07;;;1.40;;
16705;SDS011;8469;60.136;15.180;2023-07-31T10:39:34;4.28;;;1.42;;
16705;SDS011;8469;60.136;15.180;2023-07-31T10:42:14;3.10;;;1.60;;
16705;SDS011;8469;60.136;15.180;2023-07-31T10:44:46;4.72;;;1.40;;
16705;SDS011;8469;60.136;15.180;2023-07-31T10:47:16;5.12;;;1.40;;
16705;SDS011;8469;60.136;15.180;2023-07-31T10:49:44;6.80;;;1.72;;
16705;SDS011;8469;60.136;15.180;2023-07-31T10:52:13;3.98;;;1.27;;
16705;SDS011;8469;60.136;15.180;2023-07-31T10:54:40;5.42;;;1.77;;
16705;SDS011;8469;60.136;15.180;2023-07-31T10:57:20;3.85;;;1.65;;
16705;SDS011;8469;60.136;15.180;2023-07-31T10:59:48;6.00;;;1.92;;
16705;SDS011;8469;60.136;15.180;2023-07-31T11:02:26;3.58;;;1.50;;
16705;SDS011;8469;60.136;15.180;2023-07-31T11:05:11;5.85;;;2.00;;
16705;SDS011;8469;60.136;15.180;2023-07-31T11:07:48;4.72;;;1.47;;
16705;SDS011;8469;60.136;15.180;2023-07-31T11:10:16;5.03;;;1.40;;
16705;SDS011;8469;60.136;15.180;2023-07-31T11:12:48;4.17;;;1.55;;
16705;SDS011;8469;60.136;15.180;2023-07-31T11:15:13;4.45;;;1.60;;
16705;SDS011;8469;60.136;15.180;2023-07-31T11:17:40;4.37;;;1.50;;
16705;SDS011;8469;60.136;15.180;2023-07-31T11:20:08;5.62;;;1.72;;
16705;SDS011;8469;60.136;15.180;2023-07-31T11:22:36;4.55;;;1.82;;
16705;SDS011;8469;60.136;15.180;2023-07-31T11:25:03;2.37;;;1.40;;
16705;SDS011;8469;60.136;15.180;2023-07-31T11:27:31;4.67;;;1.42;;
16705;SDS011;8469;60.136;15.180;2023-07-31T11:30:00;2.57;;;1.33;;
16705;SDS011;8469;60.136;15.180;2023-07-31T11:32:28;4.62;;;1.47;;
16705;SDS011;8469;60.136;15.180;2023-07-31T11:34:55;3.52;;;1.40;;
16705;SDS011;8469;60.136;15.180;2023-07-31T11:37:22;1.57;;;1.32;;
16705;SDS011;8469;60.136;15.180;2023-07-31T11:40:00;4.12;;;1.55;;
16705;SDS011;8469;60.136;15.180;2023-07-31T11:42:19;4.67;;;1.60;;
16705;SDS011;8469;60.136;15.180;2023-07-31T11:44:46;3.85;;;1.30;;
16705;SDS011;8469;60.136;15.180;2023-07-31T11:47:14;4.80;;;1.35;;
16705;SDS011;8469;60.136;15.180;2023-07-31T11:49:42;3.52;;;1.45;;
16705;SDS011;8469;60.136;15.180;2023-07-31T11:52:10;3.95;;;1.40;;
16705;SDS011;8469;60.136;15.180;2023-07-31T11:54:38;3.47;;;1.30;;
16705;SDS011;8469;60.136;15.180;2023-07-31T11:57:05;1.50;;;1.05;;
16705;SDS011;8469;60.136;15.180;2023-07-31T11:59:33;1.20;;;1.10;;
16705;SDS011;8469;60.136;15.180;2023-07-31T12:02:01;1.77;;;1.20;;
16705;SDS011;8469;60.136;15.180;2023-07-31T12:04:29;2.05;;;1.05;;
16705;SDS011;8469;60.136;15.180;2023-07-31T12:06:56;2.77;;;1.00;;
16705;SDS011;8469;60.136;15.180;2023-07-31T12:09:25;1.90;;;1.00;;
16705;SDS011;8469;60.136;15.180;2023-07-31T12:11:57;1.50;;;1.10;;
16705;SDS011;8469;60.136;15.180;2023-07-31T12:14:22;2.72;;;1.10;;
16705;SDS011;8469;60.136;15.180;2023-07-31T12:16:54;1.80;;;1.20;;
16705;SDS011;8469;60.136;15.180;2023-07-31T12:19:24;2.15;;;1.30;;
16705;SDS011;8469;60.136;15.180;2023-07-31T12:21:53;2.22;;;1.17;;
16705;SDS011;8469;60.136;15.180;2023-07-31T12:24:35;1.17;;;1.10;;
16705;SDS011;8469;60.136;15.180;2023-07-31T12:26:50;2.05;;;1.10;;
16705;SDS011;8469;60.136;15.180;2023-07-31T12:29:18;1.27;;;1.02;;
16705;SDS011;8469;60.136;15.180;2023-07-31T12:31:46;3.10;;;1.05;;
16705;SDS011;8469;60.136;15.180;2023-07-31T12:34:16;1.77;;;0.85;;
16705;SDS011;8469;60.136;15.180;2023-07-31T12:36:44;2.00;;;1.03;;
16705;SDS011;8469;60.136;15.180;2023-07-31T12:39:12;1.77;;;1.07;;
16705;SDS011;8469;60.136;15.180;2023-07-31T12:41:39;2.20;;;0.80;;
16705;SDS011;8469;60.136;15.180;2023-07-31T12:44:07;1.07;;;1.00;;
16705;SDS011;8469;60.136;15.180;2023-07-31T12:46:36;0.90;;;0.90;;
16705;SDS011;8469;60.136;15.180;2023-07-31T12:49:03;0.85;;;0.85;;
16705;SDS011;8469;60.136;15.180;2023-07-31T12:51:31;1.37;;;0.90;;
16705;SDS011;8469;60.136;15.180;2023-07-31T12:53:58;0.90;;;0.82;;
16705;SDS011;8469;60.136;15.180;2023-07-31T12:56:25;1.07;;;0.98;;
16705;SDS011;8469;60.136;15.180;2023-07-31T12:58:53;1.40;;;0.90;;
16705;SDS011;8469;60.136;15.180;2023-07-31T13:01:20;1.12;;;1.00;;
16705;SDS011;8469;60.136;15.180;2023-07-31T13:03:47;1.27;;;0.90;;
16705;SDS011;8469;60.136;15.180;2023-07-31T13:06:14;1.72;;;1.05;;
16705;SDS011;8469;60.136;15.180;2023-07-31T13:08:41;2.10;;;1.10;;
16705;SDS011;8469;60.136;15.180;2023-07-31T13:11:09;2.62;;;1.20;;
16705;SDS011;8469;60.136;15.180;2023-07-31T13:13:36;1.30;;;1.00;;
16705;SDS011;8469;60.136;15.180;2023-07-31T13:16:05;1.42;;;1.15;;
16705;SDS011;8469;60.136;15.180;2023-07-31T13:18:32;4.40;;;1.20;;
16705;SDS011;8469;60.136;15.180;2023-07-31T13:20:59;2.02;;;1.00;;
16705;SDS011;8469;60.136;15.180;2023-07-31T13:23:26;2.62;;;1.20;;
16705;SDS011;8469;60.136;15.180;2023-07-31T13:25:54;1.12;;;1.02;;
16705;SDS011;8469;60.136;15.180;2023-07-31T13:28:22;2.08;;;1.00;;
16705;SDS011;8469;60.136;15.180;2023-07-31T13:30:49;1.70;;;1.10;;
16705;SDS011;8469;60.136;15.180;2023-07-31T13:33:16;1.20;;;1.10;;
16705;SDS011;8469;60.136;15.180;2023-07-31T13:35:44;2.22;;;1.10;;
16705;SDS011;8469;60.136;15.180;2023-07-31T13:38:11;5.83;;;1.10;;
16705;SDS011;8469;60.136;15.180;2023-07-31T13:40:39;1.60;;;1.17;;
16705;SDS011;8469;60.136;15.180;2023-07-31T13:43:06;2.98;;;1.20;;
16705;SDS011;8469;60.136;15.180;2023-07-31T13:45:33;4.65;;;1.00;;
16705;SDS011;8469;60.136;15.180;2023-07-31T13:48:01;3.12;;;1.10;;
16705;SDS011;8469;60.136;15.180;2023-07-31T13:50:28;4.53;;;1.15;;
16705;SDS011;8469;60.136;15.180;2023-07-31T13:52:56;2.25;;;1.12;;
16705;SDS011;8469;60.136;15.180;2023-07-31T13:55:23;2.60;;;1.10;;
16705;SDS011;8469;60.136;15.180;2023-07-31T13:57:50;2.33;;;1.23;;
16705;SDS011;8469;60.136;15.180;2023-07-31T14:00:19;3.20;;;1.22;;
16705;SDS011;8469;60.136;15.180;2023-07-31T14:02:47;1.47;;;1.10;;
16705;SDS011;8469;60.136;15.180;2023-07-31T14:05:14;1.77;;;1.20;;
16705;SDS011;8469;60.136;15.180;2023-07-31T14:07:41;1.90;;;1.20;;
16705;SDS011;8469;60.136;15.180;2023-07-31T14:10:09;2.42;;;1.10;;
16705;SDS011;8469;60.136;15.180;2023-07-31T14:12:36;2.25;;;1.20;;
16705;SDS011;8469;60.136;15.180;2023-07-31T14:15:04;4.20;;;1.40;;
16705;SDS011;8469;60.136;15.180;2023-07-31T14:17:31;2.45;;;1.25;;
16705;SDS011;8469;60.136;15.180;2023-07-31T14:19:58;2.33;;;1.12;;
16705;SDS011;8469;60.136;15.180;2023-07-31T14:22:29;3.33;;;1.10;;
16705;SDS011;8469;60.136;15.180;2023-07-31T14:24:59;1.70;;;1.15;;
16705;SDS011;8469;60.136;15.180;2023-07-31T14:27:27;1.70;;;1.07;;
16705;SDS011;8469;60.136;15.180;2023-07-31T14:29:54;3.95;;;1.10;;
16705;SDS011;8469;60.136;15.180;2023-07-31T14:32:22;2.55;;;1.07;;
16705;SDS011;8469;60.136;15.180;2023-07-31T14:34:51;1.00;;;0.90;;
16705;SDS011;8469;60.136;15.180;2023-07-31T14:37:18;1.98;;;1.00;;
16705;SDS011;8469;60.136;15.180;2023-07-31T14:39:46;0.70;;;0.70;;
16705;SDS011;8469;60.136;15.180;2023-07-31T14:42:13;1.10;;;1.00;;
16705;SDS011;8469;60.136;15.180;2023-07-31T14:44:41;1.98;;;1.25;;
16705;SDS011;8469;60.136;15.180;2023-07-31T14:47:09;3.80;;;1.00;;
16705;SDS011;8469;60.136;15.180;2023-07-31T14:49:37;1.40;;;0.90;;
16705;SDS011;8469;60.136;15.180;2023-07-31T14:52:04;1.60;;;1.02;;
16705;SDS011;8469;60.136;15.180;2023-07-31T14:54:33;1.17;;;1.02;;
16705;SDS011;8469;60.136;15.180;2023-07-31T14:57:00;2.25;;;1.40;;
16705;SDS011;8469;60.136;15.180;2023-07-31T14:59:28;3.17;;;1.30;;
16705;SDS011;8469;60.136;15.180;2023-07-31T15:01:56;3.40;;;1.27;;